createdAt,value
2019-03-24T00:00:33.352Z,102753.07
2019-03-24T00:01:41.498Z,102760.16
2019-03-24T00:02:43.047Z,102756.61
2019-03-24T00:03:45.279Z,102755.31
2019-03-24T00:04:47.538Z,102758.84
2019-03-24T00:05:49.758Z,102764.45
2019-03-24T00:06:51.962Z,102754.75
2019-03-24T00:07:54.191Z,102756.05
2019-03-24T00:08:58.093Z,102754.00
2019-03-24T00:10:00.356Z,102754.75
2019-03-24T00:11:02.564Z,102755.13
2019-03-24T00:12:07.483Z,102753.07
2019-03-24T00:13:09.718Z,102763.14
2019-03-24T00:14:11.928Z,102756.61
2019-03-24T00:15:14.149Z,102756.98
2019-03-24T00:16:16.353Z,102755.68
2019-03-24T00:17:18.530Z,102753.44
2019-03-24T00:18:20.752Z,102755.30
2019-03-24T00:19:22.956Z,102754.56
2019-03-24T00:20:25.212Z,102752.70
2019-03-24T00:21:27.433Z,102754.79
2019-03-24T00:22:32.356Z,102754.05
2019-03-24T00:24:55.800Z,102755.35
2019-03-24T00:25:58.007Z,102753.86
2019-03-24T00:27:00.219Z,102754.61
2019-03-24T00:28:02.449Z,102750.31
2019-03-24T00:29:04.670Z,102754.60
2019-03-24T00:30:06.888Z,102751.99
2019-03-24T00:31:09.113Z,102751.39
2019-03-24T00:32:11.307Z,102742.44
2019-03-24T00:33:13.514Z,102746.92
2019-03-24T00:34:15.730Z,102746.92
2019-03-24T00:35:17.961Z,102739.45
2019-03-24T00:36:20.163Z,102737.22
2019-03-24T00:37:22.376Z,102728.83
2019-03-24T00:38:24.582Z,102732.75
2019-03-24T00:39:26.832Z,102732.38
2019-03-24T00:40:29.060Z,102734.05
2019-03-24T00:41:31.254Z,102731.81
2019-03-24T00:42:33.460Z,102727.89
2019-03-24T00:43:35.682Z,102732.38
2019-03-24T00:44:37.889Z,102727.34
2019-03-24T00:45:40.549Z,102734.98
2019-03-24T00:46:42.663Z,102727.89
2019-03-24T00:47:44.867Z,102723.05
2019-03-24T00:48:47.112Z,102723.05
2019-03-24T00:49:49.326Z,102724.36
2019-03-24T00:50:51.606Z,102719.51
2019-03-24T00:51:56.598Z,102721.74
2019-03-24T00:52:58.804Z,102722.30
2019-03-24T00:54:01.027Z,102722.12
2019-03-24T00:55:03.154Z,102718.77
2019-03-24T00:56:05.376Z,102719.51
2019-03-24T00:57:07.594Z,102715.59
2019-03-24T00:58:10.791Z,102715.96
2019-03-24T00:59:12.970Z,102718.95
2019-03-24T01:00:15.217Z,102721.19
2019-03-24T01:01:17.434Z,102717.27
2019-03-24T01:02:19.855Z,102715.96
2019-03-24T01:03:22.083Z,102715.96
2019-03-24T01:04:24.363Z,102720.81
2019-03-24T01:05:26.648Z,102715.96
2019-03-24T01:06:28.878Z,102709.81
2019-03-24T01:07:31.086Z,102706.83
2019-03-24T01:08:33.298Z,102707.39
2019-03-24T01:09:35.509Z,102708.13
2019-03-24T01:10:37.714Z,102704.22
2019-03-24T01:11:40.128Z,102704.59
2019-03-24T01:12:42.347Z,102709.06
2019-03-24T01:13:44.549Z,102697.69
2019-03-24T01:14:46.765Z,102704.22
2019-03-24T01:15:48.990Z,102699.93
2019-03-24T01:16:51.230Z,102699.19
2019-03-24T01:17:53.427Z,102699.55
2019-03-24T01:18:55.698Z,102701.61
2019-03-24T01:19:57.878Z,102703.28
2019-03-24T01:21:00.130Z,102704.96
2019-03-24T01:22:02.360Z,102701.42
2019-03-24T01:23:04.593Z,102703.09
2019-03-24T01:24:06.804Z,102706.08
2019-03-24T01:25:09.031Z,102704.78
2019-03-24T01:26:11.263Z,102708.69
2019-03-24T01:27:14.848Z,102706.83
2019-03-24T01:28:17.068Z,102709.06
2019-03-24T01:29:19.298Z,102704.59
2019-03-24T01:30:24.079Z,102704.59
2019-03-24T01:31:26.312Z,102708.13
2019-03-24T01:32:28.534Z,102709.25
2019-03-24T01:33:30.747Z,102704.59
2019-03-24T01:34:32.950Z,102707.20
2019-03-24T01:35:35.172Z,102701.05
2019-03-24T01:36:37.496Z,102699.38
2019-03-24T01:37:39.768Z,102704.96
2019-03-24T01:38:41.951Z,102705.34
2019-03-24T01:39:44.150Z,102705.34
2019-03-24T01:40:46.369Z,102705.70
2019-03-24T01:41:48.563Z,102708.32
2019-03-24T01:42:50.795Z,102704.03
2019-03-24T01:43:53.027Z,102705.70
2019-03-24T01:44:55.234Z,102710.18
2019-03-24T01:45:58.891Z,102702.17
2019-03-24T01:47:01.515Z,102703.09
2019-03-24T01:48:03.794Z,102706.27
2019-03-24T01:49:06.131Z,102702.72
2019-03-24T01:50:08.357Z,102704.41
2019-03-24T01:51:10.719Z,102700.48
2019-03-24T01:52:12.916Z,102703.47
2019-03-24T01:53:17.359Z,102708.69
2019-03-24T01:54:19.091Z,102706.08
2019-03-24T01:55:21.385Z,102704.77
2019-03-24T01:56:23.590Z,102711.30
2019-03-24T01:57:25.790Z,102709.62
2019-03-24T01:58:28.028Z,102703.47
2019-03-24T01:59:30.325Z,102703.47
2019-03-24T02:00:32.526Z,102704.77
2019-03-24T02:01:34.719Z,102702.17
2019-03-24T02:02:37.087Z,102703.47
2019-03-24T02:03:39.355Z,102704.77
2019-03-24T02:04:41.575Z,102701.61
2019-03-24T02:05:43.814Z,102704.77
2019-03-24T02:06:46.009Z,102702.54
2019-03-24T02:07:48.220Z,102700.30
2019-03-24T02:08:50.430Z,102702.91
2019-03-24T02:09:52.620Z,102698.25
2019-03-24T02:10:54.834Z,102696.39
2019-03-24T02:11:57.124Z,102692.47
2019-03-24T02:12:59.435Z,102700.67
2019-03-24T02:14:01.657Z,102696.76
2019-03-24T02:15:03.862Z,102692.25
2019-03-24T02:16:09.539Z,102691.53
2019-03-24T02:17:09.932Z,102700.30
2019-03-24T02:18:12.131Z,102699.38
2019-03-24T02:19:14.357Z,102698.06
2019-03-24T02:20:16.673Z,102692.47
2019-03-24T02:21:18.906Z,102690.57
2019-03-24T02:22:21.418Z,102694.15
2019-03-24T02:23:23.603Z,102689.27
2019-03-24T02:24:25.836Z,102692.47
2019-03-24T02:25:28.051Z,102687.96
2019-03-24T02:26:30.433Z,102686.66
2019-03-24T02:27:32.717Z,102686.31
2019-03-24T02:28:34.913Z,102687.96
2019-03-24T02:29:37.239Z,102688.92
2019-03-24T02:30:39.474Z,102690.23
2019-03-24T02:31:41.855Z,102684.42
2019-03-24T02:32:44.346Z,102691.16
2019-03-24T02:33:46.537Z,102682.18
2019-03-24T02:34:48.857Z,102682.73
2019-03-24T02:35:51.063Z,102681.81
2019-03-24T02:36:53.316Z,102678.83
2019-03-24T02:37:55.693Z,102684.05
2019-03-24T02:38:57.897Z,102677.89
2019-03-24T02:40:00.109Z,102677.52
2019-03-24T02:41:02.491Z,102672.30
2019-03-24T02:42:04.798Z,102673.98
2019-03-24T02:43:07.138Z,102673.61
2019-03-24T02:44:09.336Z,102674.91
2019-03-24T02:45:11.552Z,102667.08
2019-03-24T02:46:24.182Z,102663.91
2019-03-24T02:47:20.875Z,102664.47
2019-03-24T02:48:23.105Z,102658.13
2019-03-24T02:49:25.428Z,102663.53
2019-03-24T02:50:27.624Z,102656.08
2019-03-24T02:51:29.831Z,102657.38
2019-03-24T02:52:32.052Z,102662.98
2019-03-24T02:53:34.264Z,102663.16
2019-03-24T02:54:36.525Z,102665.22
2019-03-24T02:55:38.854Z,102663.91
2019-03-24T02:56:41.350Z,102667.45
2019-03-24T02:57:43.663Z,102665.22
2019-03-24T02:58:45.872Z,102660.73
2019-03-24T02:59:48.078Z,102656.45
2019-03-24T03:00:50.295Z,102660.37
2019-03-24T03:01:52.501Z,102659.44
2019-03-24T03:02:55.072Z,102663.91
2019-03-24T03:03:57.214Z,102661.30
2019-03-24T03:04:59.420Z,102658.13
2019-03-24T03:06:01.644Z,102662.05
2019-03-24T03:07:03.844Z,102651.61
2019-03-24T03:08:06.189Z,102659.99
2019-03-24T03:09:08.409Z,102655.86
2019-03-24T03:10:10.620Z,102655.15
2019-03-24T03:11:12.841Z,102651.61
2019-03-24T03:12:15.059Z,102654.03
2019-03-24T03:13:17.274Z,102648.47
2019-03-24T03:14:19.511Z,102649.03
2019-03-24T03:15:21.782Z,102648.66
2019-03-24T03:16:37.558Z,102655.37
2019-03-24T03:17:27.854Z,102657.05
2019-03-24T03:18:30.051Z,102655.73
2019-03-24T03:19:32.282Z,102658.34
2019-03-24T03:20:34.479Z,102656.48
2019-03-24T03:21:36.722Z,102657.23
2019-03-24T03:22:38.933Z,102653.69
2019-03-24T03:23:41.147Z,102657.60
2019-03-24T03:24:43.369Z,102651.79
2019-03-24T03:25:45.696Z,102651.08
2019-03-24T03:26:47.935Z,102652.16
2019-03-24T03:27:50.141Z,102648.25
2019-03-24T03:28:52.345Z,102653.09
2019-03-24T03:29:54.553Z,102643.77
2019-03-24T03:30:56.751Z,102640.05
2019-03-24T03:32:01.992Z,102635.94
2019-03-24T03:33:04.194Z,102641.16
2019-03-24T03:34:06.515Z,102636.50
2019-03-24T03:35:08.821Z,102634.64
2019-03-24T03:36:11.007Z,102632.95
2019-03-24T03:37:13.274Z,102628.45
2019-03-24T03:38:15.724Z,102628.45
2019-03-24T03:39:17.909Z,102632.37
2019-03-24T03:40:20.108Z,102625.84
2019-03-24T03:41:22.332Z,102625.84
2019-03-24T03:42:24.568Z,102624.53
2019-03-24T03:43:26.774Z,102624.91
2019-03-24T03:44:28.992Z,102615.77
2019-03-24T03:45:31.208Z,102618.39
2019-03-24T03:46:33.539Z,102623.23
2019-03-24T03:47:35.745Z,102616.00
2019-03-24T03:48:37.946Z,102618.39
2019-03-24T03:49:40.195Z,102622.30
2019-03-24T03:50:42.380Z,102617.08
2019-03-24T03:51:44.599Z,102625.84
2019-03-24T03:52:46.849Z,102619.69
2019-03-24T03:53:49.047Z,102619.31
2019-03-24T03:54:51.264Z,102622.67
2019-03-24T03:55:53.469Z,102616.70
2019-03-24T03:56:55.685Z,102613.16
2019-03-24T03:57:57.942Z,102621.37
2019-03-24T03:59:00.160Z,102620.63
2019-03-24T04:00:02.517Z,102625.28
2019-03-24T04:01:04.727Z,102615.59
2019-03-24T04:02:06.958Z,102627.89
2019-03-24T04:03:09.190Z,102621.37
2019-03-24T04:04:11.382Z,102617.45
2019-03-24T04:05:13.586Z,102615.59
2019-03-24T04:06:15.793Z,102626.22
2019-03-24T04:07:20.045Z,102620.44
2019-03-24T04:08:23.840Z,102629.58
2019-03-24T04:09:26.062Z,102623.42
2019-03-24T04:10:28.264Z,102623.05
2019-03-24T04:11:30.467Z,102623.98
2019-03-24T04:12:32.678Z,102622.67
2019-03-24T04:13:34.899Z,102622.11
2019-03-24T04:14:37.109Z,102616.89
2019-03-24T04:15:39.317Z,102621.37
2019-03-24T04:16:41.525Z,102615.59
2019-03-24T04:17:43.730Z,102617.27
2019-03-24T04:18:45.950Z,102618.20
2019-03-24T04:19:48.163Z,102619.50
2019-03-24T04:20:50.364Z,102620.06
2019-03-24T04:21:52.571Z,102616.52
2019-03-24T04:22:54.784Z,102614.28
2019-03-24T04:23:57.019Z,102616.34
2019-03-24T04:24:59.249Z,102617.64
2019-03-24T04:26:01.445Z,102621.38
2019-03-24T04:27:03.675Z,102619.87
2019-03-24T04:28:06.003Z,102626.03
2019-03-24T04:29:08.252Z,102625.47
2019-03-24T04:30:10.467Z,102629.02
2019-03-24T04:31:12.681Z,102625.09
2019-03-24T04:32:14.889Z,102626.41
2019-03-24T04:33:17.093Z,102627.89
2019-03-24T04:34:19.438Z,102615.96
2019-03-24T04:35:21.642Z,102623.80
2019-03-24T04:36:23.892Z,102615.41
2019-03-24T04:37:26.063Z,102615.03
2019-03-24T04:38:28.281Z,102616.70
2019-03-24T04:39:30.683Z,102612.42
2019-03-24T04:40:32.906Z,102612.42
2019-03-24T04:41:35.107Z,102618.57
2019-03-24T04:42:37.384Z,102614.66
2019-03-24T04:43:39.605Z,102614.66
2019-03-24T04:44:41.812Z,102622.86
2019-03-24T04:45:44.033Z,102621.55
2019-03-24T04:46:46.330Z,102621.19
2019-03-24T04:47:48.530Z,102616.89
2019-03-24T04:48:50.751Z,102616.34
2019-03-24T04:49:52.999Z,102613.36
2019-03-24T04:50:55.210Z,102610.55
2019-03-24T04:51:57.429Z,102602.36
2019-03-24T04:52:59.637Z,102597.51
2019-03-24T04:54:01.869Z,102596.20
2019-03-24T04:55:04.105Z,102601.42
2019-03-24T04:56:06.793Z,102598.81
2019-03-24T04:57:08.993Z,102604.59
2019-03-24T04:58:11.211Z,102601.05
2019-03-24T04:59:13.448Z,102591.55
2019-03-24T05:00:15.679Z,102600.30
2019-03-24T05:01:17.887Z,102589.67
2019-03-24T05:02:20.095Z,102591.91
2019-03-24T05:03:22.490Z,102587.07
2019-03-24T05:04:24.617Z,102583.16
2019-03-24T05:05:26.871Z,102584.09
2019-03-24T05:06:29.086Z,102580.92
2019-03-24T05:07:31.295Z,102579.61
2019-03-24T05:08:33.501Z,102581.67
2019-03-24T05:09:35.705Z,102588.38
2019-03-24T05:10:38.826Z,102587.62
2019-03-24T05:11:41.273Z,102584.83
2019-03-24T05:12:43.487Z,102587.62
2019-03-24T05:13:45.715Z,102583.53
2019-03-24T05:14:47.927Z,102588.38
2019-03-24T05:15:50.147Z,102579.98
2019-03-24T05:16:52.500Z,102585.58
2019-03-24T05:17:54.727Z,102585.39
2019-03-24T05:18:56.991Z,102585.20
2019-03-24T05:19:59.185Z,102580.36
2019-03-24T05:21:01.482Z,102582.78
2019-03-24T05:22:03.611Z,102577.00
2019-03-24T05:23:05.829Z,102578.69
2019-03-24T05:24:08.037Z,102576.82
2019-03-24T05:25:10.320Z,102582.22
2019-03-24T05:26:12.515Z,102584.83
2019-03-24T05:27:14.656Z,102586.14
2019-03-24T05:28:16.871Z,102586.88
2019-03-24T05:29:19.080Z,102587.81
2019-03-24T05:30:21.287Z,102590.42
2019-03-24T05:31:23.487Z,102582.59
2019-03-24T05:32:25.704Z,102588.56
2019-03-24T05:33:27.903Z,102589.67
2019-03-24T05:34:30.118Z,102587.81
2019-03-24T05:35:32.331Z,102592.48
2019-03-24T05:36:34.591Z,102590.05
2019-03-24T05:37:36.799Z,102588.19
2019-03-24T05:38:38.991Z,102593.41
2019-03-24T05:39:41.196Z,102583.90
2019-03-24T05:40:43.406Z,102591.36
2019-03-24T05:41:45.641Z,102590.42
2019-03-24T05:42:47.800Z,102578.69
2019-03-24T05:43:50.004Z,102585.95
2019-03-24T05:44:52.243Z,102578.13
2019-03-24T05:45:54.430Z,102578.50
2019-03-24T05:46:56.662Z,102573.28
2019-03-24T05:47:58.883Z,102575.52
2019-03-24T05:49:01.083Z,102573.84
2019-03-24T05:50:03.288Z,102575.52
2019-03-24T05:51:05.490Z,102575.52
2019-03-24T05:52:07.726Z,102568.62
2019-03-24T05:53:09.893Z,102571.23
2019-03-24T05:54:12.084Z,102568.06
2019-03-24T05:55:14.287Z,102566.75
2019-03-24T05:56:16.487Z,102564.14
2019-03-24T05:57:18.654Z,102564.52
2019-03-24T05:58:20.848Z,102559.30
2019-03-24T05:59:23.056Z,102559.48
2019-03-24T06:00:25.253Z,102561.16
2019-03-24T06:01:27.500Z,102554.64
2019-03-24T06:02:29.701Z,102557.62
2019-03-24T06:03:31.999Z,102562.47
2019-03-24T06:04:34.212Z,102552.77
2019-03-24T06:05:36.496Z,102555.38
2019-03-24T06:06:39.863Z,102554.08
2019-03-24T06:07:42.034Z,102549.23
2019-03-24T06:08:44.178Z,102553.70
2019-03-24T06:09:46.305Z,102551.47
2019-03-24T06:10:48.512Z,102547.18
2019-03-24T06:11:50.716Z,102544.95
2019-03-24T06:12:52.966Z,102545.32
2019-03-24T06:13:55.178Z,102547.18
2019-03-24T06:14:57.401Z,102538.80
2019-03-24T06:16:01.966Z,102545.32
2019-03-24T06:17:03.665Z,102546.25
2019-03-24T06:18:05.918Z,102544.57
2019-03-24T06:19:08.125Z,102547.55
2019-03-24T06:20:10.332Z,102546.62
2019-03-24T06:21:14.695Z,102551.47
2019-03-24T06:22:18.737Z,102550.72
2019-03-24T06:23:20.973Z,102547.00
2019-03-24T06:24:23.210Z,102547.92
2019-03-24T06:25:25.415Z,102545.69
2019-03-24T06:26:27.650Z,102542.70
2019-03-24T06:27:29.871Z,102550.16
2019-03-24T06:28:32.104Z,102544.95
2019-03-24T06:29:34.306Z,102548.48
2019-03-24T06:30:36.532Z,102547.55
2019-03-24T06:31:38.734Z,102547.55
2019-03-24T06:32:40.952Z,102543.64
2019-03-24T06:33:43.200Z,102542.34
2019-03-24T06:34:45.400Z,102541.41
2019-03-24T06:35:47.608Z,102540.47
2019-03-24T06:36:49.814Z,102544.57
2019-03-24T06:37:52.011Z,102539.17
2019-03-24T06:38:54.218Z,102540.84
2019-03-24T06:39:56.437Z,102539.72
2019-03-24T06:40:58.633Z,102532.27
2019-03-24T06:42:00.830Z,102536.94
2019-03-24T06:43:03.043Z,102530.03
2019-03-24T06:44:05.270Z,102528.36
2019-03-24T06:45:07.489Z,102527.42
2019-03-24T06:46:09.701Z,102531.34
2019-03-24T06:47:11.906Z,102530.97
2019-03-24T06:48:14.120Z,102537.11
2019-03-24T06:49:16.393Z,102529.11
2019-03-24T06:50:18.600Z,102530.59
2019-03-24T06:51:20.829Z,102532.27
2019-03-24T06:52:23.035Z,102530.03
2019-03-24T06:53:25.252Z,102527.98
2019-03-24T06:54:27.505Z,102530.78
2019-03-24T06:55:30.798Z,102532.64
2019-03-24T06:56:32.986Z,102536.19
2019-03-24T06:57:35.213Z,102534.87
2019-03-24T06:58:37.413Z,102536.56
2019-03-24T06:59:39.666Z,102545.32
2019-03-24T07:00:41.873Z,102542.70
2019-03-24T07:01:44.082Z,102537.30
2019-03-24T07:02:46.313Z,102533.58
2019-03-24T07:03:48.462Z,102538.05
2019-03-24T07:04:50.701Z,102532.27
2019-03-24T07:05:53.002Z,102523.14
2019-03-24T07:06:55.233Z,102522.20
2019-03-24T07:07:57.447Z,102520.90
2019-03-24T07:08:59.661Z,102523.70
2019-03-24T07:10:04.346Z,102526.30
2019-03-24T07:11:12.351Z,102521.83
2019-03-24T07:12:10.413Z,102517.92
2019-03-24T07:13:12.620Z,102514.75
2019-03-24T07:14:14.827Z,102512.70
2019-03-24T07:15:17.060Z,102505.24
2019-03-24T07:16:19.282Z,102511.39
2019-03-24T07:17:21.517Z,102505.24
2019-03-24T07:18:23.733Z,102504.49
2019-03-24T07:19:25.970Z,102500.95
2019-03-24T07:20:28.335Z,102498.34
2019-03-24T07:21:30.557Z,102490.52
2019-03-24T07:22:32.769Z,102495.73
2019-03-24T07:23:34.966Z,102489.20
2019-03-24T07:24:37.188Z,102488.84
2019-03-24T07:25:39.407Z,102489.58
2019-03-24T07:26:46.768Z,102483.44
2019-03-24T07:27:48.679Z,102487.91
2019-03-24T07:28:50.891Z,102490.89
2019-03-24T07:29:53.113Z,102491.82
2019-03-24T07:30:57.823Z,102497.41
2019-03-24T07:32:00.231Z,102496.11
2019-03-24T07:33:02.443Z,102501.88
2019-03-24T07:34:06.409Z,102501.88
2019-03-24T07:35:08.574Z,102504.49
2019-03-24T07:36:10.817Z,102505.80
2019-03-24T07:37:13.032Z,102503.94
2019-03-24T07:38:15.250Z,102503.56
2019-03-24T07:39:17.472Z,102498.34
2019-03-24T07:40:19.696Z,102493.88
2019-03-24T07:41:22.043Z,102497.41
2019-03-24T07:42:24.283Z,102495.55
2019-03-24T07:43:26.490Z,102496.11
2019-03-24T07:44:28.700Z,102496.48
2019-03-24T07:45:30.909Z,102497.04
2019-03-24T07:46:33.137Z,102499.65
2019-03-24T07:47:35.341Z,102498.34
2019-03-24T07:48:37.575Z,102495.73
2019-03-24T07:49:39.797Z,102498.72
2019-03-24T07:50:42.028Z,102501.88
2019-03-24T07:51:46.341Z,102498.34
2019-03-24T07:52:48.726Z,102496.30
2019-03-24T07:53:50.940Z,102494.05
2019-03-24T07:54:55.666Z,102490.52
2019-03-24T07:55:57.877Z,102486.23
2019-03-24T07:57:00.111Z,102494.98
2019-03-24T07:58:02.260Z,102490.89
2019-03-24T07:59:04.458Z,102491.07
2019-03-24T08:00:06.668Z,102490.52
2019-03-24T08:01:09.062Z,102483.06
2019-03-24T08:02:12.331Z,102487.91
2019-03-24T08:03:14.568Z,102487.53
2019-03-24T08:04:18.520Z,102485.30
2019-03-24T08:05:20.707Z,102484.92
2019-03-24T08:06:22.916Z,102484.92
2019-03-24T08:07:25.201Z,102482.87
2019-03-24T08:08:27.415Z,102483.23
2019-03-24T08:09:29.619Z,102481.36
2019-03-24T08:10:31.821Z,102477.29
2019-03-24T08:11:34.028Z,102478.61
2019-03-24T08:12:37.504Z,102474.51
2019-03-24T08:13:52.850Z,102472.65
2019-03-24T08:14:43.601Z,102479.35
2019-03-24T08:15:45.803Z,102472.27
2019-03-24T08:16:48.023Z,102467.98
2019-03-24T08:17:50.261Z,102471.90
2019-03-24T08:18:52.498Z,102465.55
2019-03-24T08:19:54.687Z,102469.65
2019-03-24T08:20:56.893Z,102471.33
2019-03-24T08:21:59.091Z,102474.87
2019-03-24T08:23:01.332Z,102471.70
2019-03-24T08:24:06.720Z,102469.27
2019-03-24T08:25:08.950Z,102471.33
2019-03-24T08:26:11.238Z,102462.94
2019-03-24T08:27:16.705Z,102468.16
2019-03-24T08:28:18.939Z,102468.36
2019-03-24T08:29:21.210Z,102466.31
2019-03-24T08:30:23.402Z,102465.38
2019-03-24T08:31:25.639Z,102465.76
2019-03-24T08:32:27.848Z,102466.84
2019-03-24T08:33:30.082Z,102471.31
2019-03-24T08:34:32.310Z,102465.17
2019-03-24T08:35:34.535Z,102462.55
2019-03-24T08:36:36.778Z,102460.33
2019-03-24T08:37:39.002Z,102465.54
2019-03-24T08:38:42.566Z,102459.39
2019-03-24T08:39:44.774Z,102457.49
2019-03-24T08:40:46.998Z,102454.17
2019-03-24T08:41:49.205Z,102453.23
2019-03-24T08:42:51.436Z,102451.94
2019-03-24T08:43:53.699Z,102444.82
2019-03-24T08:44:55.896Z,102450.26
2019-03-24T08:45:58.104Z,102444.11
2019-03-24T08:47:00.311Z,102438.89
2019-03-24T08:48:02.526Z,102436.61
2019-03-24T08:49:04.746Z,102436.28
2019-03-24T08:50:07.004Z,102434.00
2019-03-24T08:51:09.162Z,102436.61
2019-03-24T08:52:11.379Z,102426.92
2019-03-24T08:53:13.626Z,102434.97
2019-03-24T08:54:15.834Z,102437.58
2019-03-24T08:55:18.040Z,102441.50
2019-03-24T08:56:20.246Z,102440.91
2019-03-24T08:57:22.464Z,102443.14
2019-03-24T08:58:24.727Z,102444.45
2019-03-24T08:59:27.175Z,102444.45
2019-03-24T09:00:30.980Z,102448.95
2019-03-24T09:01:34.963Z,102450.97
2019-03-24T09:02:37.187Z,102444.45
2019-03-24T09:03:39.412Z,102444.82
2019-03-24T09:04:41.645Z,102444.27
2019-03-24T09:05:43.842Z,102445.56
2019-03-24T09:06:46.066Z,102446.87
2019-03-24T09:07:48.268Z,102443.34
2019-03-24T09:08:50.555Z,102446.87
2019-03-24T09:09:52.771Z,102449.11
2019-03-24T09:10:55.015Z,102445.56
2019-03-24T09:11:57.232Z,102449.48
2019-03-24T09:12:59.467Z,102447.63
2019-03-24T09:14:01.724Z,102452.47
2019-03-24T09:15:04.199Z,102451.16
2019-03-24T09:16:06.406Z,102446.50
2019-03-24T09:17:08.550Z,102439.23
2019-03-24T09:18:10.763Z,102434.38
2019-03-24T09:19:31.888Z,102427.14
2019-03-24T09:20:41.670Z,102425.84
2019-03-24T09:21:39.701Z,102418.34
2019-03-24T09:22:41.925Z,102415.39
2019-03-24T09:23:44.152Z,102405.89
2019-03-24T09:24:46.375Z,102405.89
2019-03-24T09:25:48.588Z,102404.58
2019-03-24T09:26:50.803Z,102396.37
2019-03-24T09:27:53.011Z,102401.59
2019-03-24T09:28:55.212Z,102402.91
2019-03-24T09:29:57.481Z,102398.61
2019-03-24T09:30:59.778Z,102400.29
2019-03-24T09:32:02.004Z,102406.44
2019-03-24T09:33:04.218Z,102403.45
2019-03-24T09:34:06.416Z,102400.29
2019-03-24T09:35:08.672Z,102396.37
2019-03-24T09:36:10.884Z,102398.23
2019-03-24T09:37:13.106Z,102391.71
2019-03-24T09:38:15.311Z,102393.39
2019-03-24T09:39:17.516Z,102394.70
2019-03-24T09:40:19.984Z,102390.41
2019-03-24T09:41:22.183Z,102394.32
2019-03-24T09:42:24.498Z,102391.38
2019-03-24T09:43:26.722Z,102389.69
2019-03-24T09:44:28.935Z,102386.16
2019-03-24T09:45:31.181Z,102381.86
2019-03-24T09:46:33.385Z,102377.36
2019-03-24T09:47:38.362Z,102385.78
2019-03-24T09:48:40.574Z,102383.54
2019-03-24T09:49:42.799Z,102378.32
2019-03-24T09:50:45.013Z,102377.73
2019-03-24T09:51:49.002Z,102379.63
2019-03-24T09:52:51.210Z,102375.87
2019-03-24T09:53:53.488Z,102377.95
2019-03-24T09:54:55.734Z,102377.36
2019-03-24T09:55:58.031Z,102375.71
2019-03-24T09:57:00.260Z,102371.05
2019-03-24T09:58:02.472Z,102359.30
2019-03-24T09:59:04.681Z,102359.67
2019-03-24T10:00:06.895Z,102355.38
2019-03-24T10:01:09.145Z,102353.70
2019-03-24T10:02:11.390Z,102353.70
2019-03-24T10:03:13.605Z,102353.70
2019-03-24T10:04:15.827Z,102353.70
2019-03-24T10:05:18.192Z,102356.87
2019-03-24T10:06:20.443Z,102356.31
2019-03-24T10:07:22.656Z,102353.70
2019-03-24T10:08:24.976Z,102347.55
2019-03-24T10:09:27.198Z,102353.33
2019-03-24T10:10:29.415Z,102351.27
2019-03-24T10:11:31.703Z,102349.04
2019-03-24T10:12:33.931Z,102350.34
2019-03-24T10:13:36.147Z,102345.50
2019-03-24T10:14:40.283Z,102346.05
2019-03-24T10:15:42.241Z,102348.28
2019-03-24T10:16:44.483Z,102344.55
2019-03-24T10:17:46.775Z,102349.39
2019-03-24T10:18:50.692Z,102345.30
2019-03-24T10:19:52.942Z,102344.55
2019-03-24T10:20:55.139Z,102346.98
2019-03-24T10:21:57.391Z,102346.23
2019-03-24T10:22:59.609Z,102342.31
2019-03-24T10:24:01.827Z,102339.33
2019-03-24T10:25:04.241Z,102337.47
2019-03-24T10:26:06.463Z,102334.69
2019-03-24T10:27:08.860Z,102335.61
2019-03-24T10:28:11.028Z,102331.14
2019-03-24T10:29:16.087Z,102326.67
2019-03-24T10:30:22.015Z,102329.84
2019-03-24T10:31:24.272Z,102327.23
2019-03-24T10:32:26.519Z,102324.44
2019-03-24T10:33:28.790Z,102316.23
2019-03-24T10:34:30.992Z,102316.78
2019-03-24T10:35:33.207Z,102311.56
2019-03-24T10:36:35.479Z,102308.95
2019-03-24T10:37:37.719Z,102306.17
2019-03-24T10:38:39.925Z,102308.41
2019-03-24T10:39:42.154Z,102309.33
2019-03-24T10:40:44.362Z,102301.50
2019-03-24T10:41:46.585Z,102307.09
2019-03-24T10:42:48.829Z,102305.24
2019-03-24T10:43:51.141Z,102311.39
2019-03-24T10:44:53.360Z,102309.70
2019-03-24T10:45:55.572Z,102310.09
2019-03-24T10:46:57.776Z,102308.41
2019-03-24T10:48:00.007Z,102309.33
2019-03-24T10:49:02.236Z,102303.36
2019-03-24T10:50:04.446Z,102310.44
2019-03-24T10:51:06.659Z,102297.59
2019-03-24T10:52:08.877Z,102294.60
2019-03-24T10:53:11.096Z,102300.75
2019-03-24T10:54:13.292Z,102291.99
2019-03-24T10:55:15.537Z,102293.30
2019-03-24T10:56:17.841Z,102294.60
2019-03-24T10:57:20.079Z,102294.60
2019-03-24T10:58:22.333Z,102292.55
2019-03-24T10:59:24.672Z,102293.09
2019-03-24T11:00:26.862Z,102291.80
2019-03-24T11:01:29.080Z,102282.28
2019-03-24T11:02:31.333Z,102286.20
2019-03-24T11:03:33.522Z,102282.66
2019-03-24T11:04:36.728Z,102277.61
2019-03-24T11:05:40.097Z,102274.08
2019-03-24T11:06:42.252Z,102275.38
2019-03-24T11:07:44.481Z,102276.30
2019-03-24T11:08:46.717Z,102272.39
2019-03-24T11:09:48.920Z,102267.17
2019-03-24T11:10:51.114Z,102272.02
2019-03-24T11:11:53.334Z,102275.93
2019-03-24T11:12:55.645Z,102278.54
2019-03-24T11:13:57.871Z,102270.53
2019-03-24T11:15:00.166Z,102271.27
2019-03-24T11:16:02.631Z,102271.09
2019-03-24T11:17:04.845Z,102273.87
2019-03-24T11:18:07.068Z,102262.88
2019-03-24T11:19:09.319Z,102271.64
2019-03-24T11:20:11.543Z,102262.12
2019-03-24T11:21:13.877Z,102262.88
2019-03-24T11:22:16.072Z,102271.64
2019-03-24T11:23:18.594Z,102267.72
2019-03-24T11:24:20.828Z,102268.66
2019-03-24T11:25:23.039Z,102267.34
2019-03-24T11:26:25.242Z,102269.78
2019-03-24T11:27:27.442Z,102265.11
2019-03-24T11:28:29.647Z,102260.82
2019-03-24T11:29:31.862Z,102256.16
2019-03-24T11:30:34.129Z,102260.06
2019-03-24T11:31:36.338Z,102258.77
2019-03-24T11:32:38.623Z,102255.77
2019-03-24T11:33:40.863Z,102248.32
2019-03-24T11:34:43.079Z,102250.55
2019-03-24T11:35:45.303Z,102251.86
2019-03-24T11:36:47.499Z,102247.02
2019-03-24T11:37:49.733Z,102240.49
2019-03-24T11:38:51.949Z,102238.43
2019-03-24T11:39:54.167Z,102241.97
2019-03-24T11:40:56.389Z,102237.72
2019-03-24T11:41:58.653Z,102235.82
2019-03-24T11:43:00.912Z,102231.73
2019-03-24T11:44:03.146Z,102229.13
2019-03-24T11:45:05.371Z,102235.82
2019-03-24T11:46:07.570Z,102227.98
2019-03-24T11:47:09.790Z,102226.31
2019-03-24T11:48:12.004Z,102225.00
2019-03-24T11:49:14.273Z,102223.70
2019-03-24T11:50:16.476Z,102218.14
2019-03-24T11:51:18.715Z,102214.94
2019-03-24T11:52:20.944Z,102208.41
2019-03-24T11:53:23.152Z,102209.34